Time;durP1;ratioP1;P1;durP2;ratioP2;P2;SDS_P1;SDS_P2;PMS_P1;PMS_P2;Temp;Humidity;BMP_temperature;BMP_pressure;BME280_temperature;BME280_humidity;BME280_pressure;Samples;Min_cycle;Max_cycle;Signal;HPM_P1;HPM_P2
2022/04/11 00:00:51;;;;;;;19.55;9.90;;;;;;;29.92;59.78;100916.66;5137461;27;70007;-35
2022/04/11 00:03:23;;;;;;;12.63;10.07;;;;;;;30.00;60.08;100923.69;5104200;27;65134;-35
2022/04/11 00:05:54;;;;;;;18.80;11.48;;;;;;;30.01;60.08;100914.56;5102406;27;70335;-36
2022/04/11 00:08:25;;;;;;;18.90;11.63;;;;;;;30.11;60.21;100925.72;5120369;27;66385;-37
2022/04/11 00:10:56;;;;;;;18.38;11.15;;;;;;;30.18;60.19;100929.25;5084348;27;69909;-36
2022/04/11 00:13:27;;;;;;;19.65;12.93;;;;;;;30.19;59.91;100920.09;5106069;27;66653;-36
2022/04/11 00:15:59;;;;;;;17.63;11.68;;;;;;;30.19;59.84;100917.38;5088404;27;69687;-36
2022/04/11 00:18:30;;;;;;;14.57;11.93;;;;;;;30.27;60.01;100928.00;5119336;27;66288;-37
2022/04/11 00:21:01;;;;;;;24.65;12.68;;;;;;;30.33;60.15;100928.19;5083628;27;70195;-36
2022/04/11 00:23:32;;;;;;;16.67;12.68;;;;;;;30.31;60.10;100922.13;5083745;27;67389;-36
2022/04/11 00:26:03;;;;;;;15.18;11.73;;;;;;;30.41;60.58;100941.47;5101518;27;69889;-35
2022/04/11 00:28:35;;;;;;;26.27;12.70;;;;;;;30.44;60.26;100958.09;5119984;27;65466;-37
2022/04/11 00:31:06;;;;;;;15.35;11.30;;;;;;;30.46;60.06;100950.59;5074893;27;70127;-35
2022/04/11 00:33:37;;;;;;;16.63;11.32;;;;;;;30.46;60.58;100963.31;5105980;27;66113;-36
2022/04/11 00:36:07;;;;;;;17.90;11.88;;;;;;;30.56;60.05;100969.06;5101779;27;69495;-36
2022/04/11 00:38:39;;;;;;;16.38;11.60;;;;;;;30.54;60.16;100963.06;5099795;27;65803;-35
2022/04/11 00:41:11;;;;;;;17.20;11.77;;;;;;;30.53;59.77;100961.38;5101690;27;70117;-35
2022/04/11 00:43:41;;;;;;;16.67;11.13;;;;;;;30.61;60.13;100974.66;5128367;27;66172;-35
2022/04/11 00:46:12;;;;;;;19.45;11.82;;;;;;;30.62;59.89;100970.94;5100826;27;69753;-35
2022/04/11 00:48:44;;;;;;;23.02;12.68;;;;;;;30.65;59.82;100978.63;5099067;27;65785;-36
2022/04/11 00:51:23;;;;;;;16.75;11.85;;;;;;;30.69;60.05;100984.41;5118234;27;69519;-35
2022/04/11 00:53:59;;;;;;;20.65;11.73;;;;;;;30.45;59.95;100948.94;5110625;27;65960;-35
2022/04/11 00:56:30;;;;;;;14.90;10.90;;;;;;;30.69;60.29;101000.66;5104912;27;69317;-36
2022/04/11 00:59:02;;;;;;;11.90;9.93;;;;;;;30.73;59.72;101002.75;5119549;27;66226;-36
2022/04/11 01:01:32;;;;;;;17.92;10.85;;;;;;;30.73;60.08;101000.03;5112321;27;70701;-36
2022/04/11 01:04:04;;;;;;;14.93;10.90;;;;;;;30.79;60.34;101013.75;5094034;27;66213;-35
2022/04/11 01:06:35;;;;;;;15.60;9.75;;;;;;;30.81;59.99;101015.19;5099746;27;70812;-38
2022/04/11 01:09:06;;;;;;;23.15;10.73;;;;;;;30.84;59.51;101022.06;5105120;27;67263;-37
2022/04/11 01:11:37;;;;;;;20.60;9.75;;;;;;;30.97;58.27;101016.56;5108978;27;69410;-37
2022/04/11 01:14:09;;;;;;;26.07;10.07;;;;;;;31.04;58.08;101016.56;5110942;27;66392;-38
2022/04/11 01:16:46;;;;;;;23.60;10.13;;;;;;;31.10;57.87;101019.22;5094057;27;68900;-37
2022/04/11 01:19:20;;;;;;;26.45;11.23;;;;;;;31.01;60.13;101017.81;5096379;27;66138;-37
2022/04/11 01:21:51;;;;;;;34.72;12.05;;;;;;;30.96;60.64;101017.63;5097267;27;69283;-40
2022/04/11 01:24:23;;;;;;;29.63;12.27;;;;;;;30.91;60.68;101017.47;5106702;27;65872;-38
2022/04/11 01:27:56;;;;;;;29.83;11.95;;;;;;;30.77;62.11;101002.31;5078406;27;70350;-36
2022/04/11 01:30:27;;;;;;;19.40;11.65;;;;;;;30.91;61.86;101012.03;5024749;28;67365;-36
2022/04/11 01:32:58;;;;;;;19.08;10.60;;;;;;;30.92;61.75;101019.09;5028866;28;71220;-36
2022/04/11 01:35:30;;;;;;;26.48;12.35;;;;;;;30.93;62.01;101012.66;5043074;27;66039;-37
2022/04/11 01:38:04;;;;;;;22.33;10.88;;;;;;;30.92;61.37;101008.28;5118139;27;69578;-36
2022/04/11 01:40:35;;;;;;;25.50;11.15;;;;;;;30.90;62.06;101004.97;5102533;27;66173;-36
2022/04/11 01:43:05;;;;;;;20.27;12.27;;;;;;;30.96;61.76;101009.50;5109008;27;69230;-36
2022/04/11 01:45:36;;;;;;;22.25;12.23;;;;;;;30.97;62.22;101011.16;5083423;27;66182;-36
2022/04/11 01:48:07;;;;;;;19.08;10.43;;;;;;;30.99;61.91;101014.50;5120826;27;70306;-36
2022/04/11 01:50:39;;;;;;;19.95;10.18;;;;;;;30.93;61.95;100991.00;5083911;27;66279;-35
2022/04/11 01:53:12;;;;;;;25.83;11.82;;;;;;;31.03;63.24;101007.56;5092092;27;68964;-34
2022/04/11 01:55:44;;;;;;;30.25;11.43;;;;;;;31.06;62.79;101007.13;5109527;27;65408;-36
2022/04/11 01:58:16;;;;;;;22.45;11.70;;;;;;;31.11;62.12;101011.91;5125805;27;70438;-35
2022/04/11 02:00:46;;;;;;;23.63;10.35;;;;;;;31.10;62.64;101012.97;5106443;27;65557;-35
2022/04/11 02:03:17;;;;;;;21.33;10.90;;;;;;;31.13;62.96;101004.41;5115122;27;69436;-35
2022/04/11 02:05:48;;;;;;;20.57;10.40;;;;;;;31.14;62.89;101012.28;5113546;27;66505;-37
2022/04/11 02:08:20;;;;;;;21.75;9.68;;;;;;;31.14;62.60;101001.44;5119950;27;70097;-36
2022/04/11 02:10:54;;;;;;;14.15;9.45;;;;;;;31.20;62.31;101012.47;5126673;27;66157;-35
2022/04/11 02:13:26;;;;;;;16.00;11.13;;;;;;;31.20;62.33;101010.59;5105655;27;69831;-36
2022/04/11 02:15:59;;;;;;;17.85;10.65;;;;;;;31.16;61.64;101002.06;5104519;27;66093;-36
2022/04/11 02:18:29;;;;;;;12.35;9.30;;;;;;;31.25;62.03;101007.22;5088168;27;70247;-36
2022/04/11 02:21:01;;;;;;;11.63;9.60;;;;;;;31.24;61.80;101000.16;5089618;27;66600;-35
2022/04/11 02:23:32;;;;;;;16.02;9.68;;;;;;;31.24;61.83;101000.16;5104324;27;69704;-32
2022/04/11 02:26:03;;;;;;;16.60;9.52;;;;;;;31.31;61.65;101006.34;5110445;27;66887;-33
2022/04/11 02:28:34;;;;;;;12.73;8.85;;;;;;;31.31;61.84;101000.91;5105723;27;69325;-34
2022/04/11 02:31:05;;;;;;;13.10;9.27;;;;;;;31.24;61.78;100984.72;5112745;27;66125;-33
2022/04/11 02:33:36;;;;;;;12.45;8.82;;;;;;;31.30;62.03;100988.44;5087913;27;69712;-34
2022/04/11 02:36:07;;;;;;;14.90;9.43;;;;;;;31.38;61.78;101002.56;5121660;27;66711;-33
2022/04/11 02:38:38;;;;;;;14.30;9.45;;;;;;;31.26;62.21;100979.06;5104126;27;70477;-33
2022/04/11 02:41:09;;;;;;;11.82;8.30;;;;;;;31.43;61.60;100993.78;5107898;27;65670;-36
2022/04/11 02:43:45;;;;;;;16.73;9.10;;;;;;;31.38;61.89;100983.59;5108209;27;70015;-36
2022/04/11 02:46:17;;;;;;;25.27;9.07;;;;;;;31.52;62.53;100988.91;5110140;27;65168;-34
2022/04/11 02:48:48;;;;;;;22.50;9.70;;;;;;;31.49;63.22;100975.78;5110367;27;70786;-34
2022/04/11 02:51:24;;;;;;;20.30;8.20;;;;;;;31.72;61.60;100986.00;5112981;27;65741;-34
2022/04/11 02:54:07;;;;;;;8.32;7.30;;;;;;;31.86;60.89;100982.09;5102015;27;69834;-33
2022/04/11 02:56:42;;;;;;;14.30;7.63;;;;;;;31.88;60.51;100974.56;5093980;27;66167;-33
2022/04/11 02:59:13;;;;;;;22.00;11.75;;;;;;;32.04;59.98;100984.88;5104357;27;70704;-33
2022/04/11 03:01:50;;;;;;;13.68;10.75;;;;;;;32.15;59.73;100974.28;5124326;27;66574;-33
2022/04/11 03:04:22;;;;;;;;;;;;;;;31.88;60.41;100979.19;5112054;27;69673;-34
2022/04/11 03:07:11;;;;;;;18.73;10.70;;;;;;;32.24;59.16;100972.94;5108509;27;65953;-33
2022/04/11 03:09:42;;;;;;;21.23;11.38;;;;;;;32.30;58.85;100972.03;5105046;27;69830;-33
2022/04/11 03:12:14;;;;;;;;;;;;;;;32.02;58.71;100965.25;5122840;27;66319;-34
2022/04/11 03:14:44;;;;;;;13.65;10.27;;;;;;;32.37;58.51;100961.91;5107359;27;70148;-33
2022/04/11 03:17:17;;;;;;;14.25;11.02;;;;;;;32.44;58.11;100965.38;5093481;27;66029;-34
2022/04/11 03:19:47;;;;;;;12.30;10.30;;;;;;;32.39;57.85;100943.50;5106601;27;69382;-34
2022/04/11 03:22:18;;;;;;;11.02;9.95;;;;;;;32.52;57.40;100952.56;5100073;27;65615;-33
2022/04/11 03:24:54;;;;;;;11.30;9.57;;;;;;;32.57;57.67;100948.13;5105884;27;69459;-33
2022/04/11 03:27:26;;;;;;;12.03;9.23;;;;;;;32.60;57.31;100946.81;5099728;27;66345;-33
2022/04/11 03:29:57;;;;;;;13.87;9.83;;;;;;;32.63;56.82;100943.66;5109294;27;70244;-32
2022/04/11 03:32:27;;;;;;;10.98;9.80;;;;;;;32.47;56.97;100907.91;5109673;27;65034;-33
2022/04/11 03:34:59;;;;;;;;;;;;;;;32.37;56.98;100934.75;5123636;27;70146;-33
2022/04/11 03:37:30;;;;;;;14.57;10.15;;;;;;;32.67;56.79;100928.53;5121905;27;66689;-33
2022/04/11 03:40:14;;;;;;;10.65;9.23;;;;;;;32.73;56.70;100933.03;5094530;27;69585;-34
2022/04/11 03:42:46;;;;;;;10.68;9.63;;;;;;;32.76;56.37;100929.84;5104583;27;65886;-33
2022/04/11 03:45:17;;;;;;;9.80;8.90;;;;;;;32.82;56.30;100942.53;5119812;27;70683;-32
2022/04/11 03:47:49;;;;;;;9.75;8.85;;;;;;;32.86;56.19;100932.84;5110660;27;66176;-33
2022/04/11 03:50:24;;;;;;;9.93;9.07;;;;;;;32.83;55.81;100927.88;5091728;27;70489;-33
2022/04/11 03:52:54;;;;;;;10.93;9.57;;;;;;;32.86;55.59;100921.97;5093927;27;65891;-35
2022/04/11 03:55:25;;;;;;;10.13;9.33;;;;;;;32.76;55.71;100901.88;5104472;27;70317;-32
2022/04/11 03:57:57;;;;;;;10.07;8.57;;;;;;;32.95;55.78;100927.88;5085019;27;66361;-32
2022/04/11 04:00:28;;;;;;;;;;;;;;;32.65;55.96;100925.22;5097544;27;69230;-34
2022/04/11 04:03:25;;;;;;;9.85;9.05;;;;;;;32.94;55.81;100912.66;5127109;27;66138;-34
2022/04/11 04:06:01;;;;;;;10.23;8.75;;;;;;;32.98;55.44;100924.69;5112457;27;69189;-34
2022/04/11 04:08:37;;;;;;;11.63;9.65;;;;;;;33.03;55.21;100918.59;5121504;27;66488;-33
2022/04/11 04:11:20;;;;;;;10.32;9.43;;;;;;;33.03;55.25;100915.88;5095056;27;68992;-34
2022/04/11 04:14:13;;;;;;;12.20;9.95;;;;;;;32.96;54.86;100898.81;5082316;27;65234;-33
2022/04/11 04:16:49;;;;;;;9.75;8.75;;;;;;;33.07;54.90;100914.34;5121420;27;69812;-34
2022/04/11 04:19:26;;;;;;;12.65;9.35;;;;;;;33.09;55.01;100917.66;5116826;27;66571;-33
2022/04/11 04:22:00;;;;;;;9.73;8.80;;;;;;;33.08;54.85;100899.72;5110364;27;70578;-33
2022/04/11 04:24:33;;;;;;;10.93;9.70;;;;;;;33.11;54.88;100907.41;5107982;27;65110;-34
2022/04/11 04:27:05;;;;;;;13.38;9.00;;;;;;;33.13;54.84;100914.25;5110171;27;69825;-34
2022/04/11 04:29:38;;;;;;;9.85;8.95;;;;;;;33.15;54.66;100903.13;5095492;27;66141;-34
2022/04/11 04:32:09;;;;;;;9.80;8.80;;;;;;;33.13;54.56;100891.69;5108292;27;70439;-32
2022/04/11 04:34:41;;;;;;;10.43;9.37;;;;;;;33.15;54.60;100894.97;5107600;27;66034;-33
2022/04/11 04:37:11;;;;;;;;;;;;;;;32.84;54.71;100891.47;5107252;27;69765;-32
2022/04/11 04:39:43;;;;;;;15.23;9.10;;;;;;;33.17;54.58;100895.56;5101369;27;67163;-34
2022/04/11 04:42:21;;;;;;;9.95;8.98;;;;;;;33.11;53.65;100869.34;5103324;27;69029;-34
2022/04/11 04:44:55;;;;;;;9.53;8.70;;;;;;;32.96;54.25;100834.47;5105080;27;65592;-33
2022/04/11 04:47:26;;;;;;;11.07;9.43;;;;;;;33.24;54.21;100863.69;5108465;27;70152;-34
2022/04/11 04:49:57;;;;;;;9.77;8.88;;;;;;;33.26;54.03;100860.69;5129745;27;66368;-33
2022/04/11 04:52:29;;;;;;;12.65;9.25;;;;;;;33.29;53.59;100850.22;5107500;27;70724;-33
2022/04/11 04:55:07;;;;;;;10.77;9.02;;;;;;;33.32;53.69;100855.16;5112949;27;66204;-33
2022/04/11 04:57:37;;;;;;;11.23;10.13;;;;;;;33.35;53.80;100843.81;5130019;27;70112;-34
2022/04/11 05:00:09;;;;;;;11.75;9.13;;;;;;;33.36;53.69;100839.19;5114119;27;65929;-33
2022/04/11 05:02:45;;;;;;;10.85;8.95;;;;;;;33.37;53.82;100825.34;5110536;27;70106;-32
2022/04/11 05:05:20;;;;;;;12.20;9.60;;;;;;;33.35;53.42;100805.75;5096172;27;66565;-38
2022/04/11 05:07:55;;;;;;;9.32;8.48;;;;;;;33.38;53.47;100802.53;5108321;27;70516;-34
2022/04/11 05:10:29;;;;;;;13.07;8.68;;;;;;;33.43;53.42;100809.16;5110291;27;66019;-33
2022/04/11 05:13:01;;;;;;;12.43;8.77;;;;;;;33.43;53.53;100799.09;5112772;27;70533;-34
2022/04/11 05:15:32;;;;;;;9.07;8.27;;;;;;;33.45;53.96;100798.88;5113498;27;66897;-33
2022/04/11 05:18:16;;;;;;;9.45;8.65;;;;;;;33.47;53.15;100786.69;5093215;27;69991;-33
2022/04/11 05:20:47;;;;;;;9.63;8.57;;;;;;;33.47;53.09;100783.13;5109000;27;66546;-34
2022/04/11 05:23:20;;;;;;;9.35;8.63;;;;;;;33.45;53.49;100763.50;5106751;27;69351;-34
2022/04/11 05:25:50;;;;;;;9.93;8.93;;;;;;;33.43;53.30;100760.19;5115569;27;66362;-34
2022/04/11 05:28:22;;;;;;;9.60;8.57;;;;;;;33.53;53.05;100768.59;5121232;27;70048;-34
2022/04/11 05:31:00;;;;;;;10.98;9.15;;;;;;;33.55;53.03;100755.59;5112576;27;65478;-33
2022/04/11 05:33:35;;;;;;;9.57;8.63;;;;;;;33.57;52.72;100758.88;5115719;27;70006;-33
2022/04/11 05:36:11;;;;;;;9.15;8.25;;;;;;;33.61;52.59;100762.78;5108304;27;66498;-32
2022/04/11 05:38:42;;;;;;;9.40;8.52;;;;;;;33.59;52.78;100754.03;5114775;27;70123;-37
2022/04/11 05:41:14;;;;;;;16.02;8.98;;;;;;;33.62;53.02;100747.28;5117773;27;65365;-34
2022/04/11 05:43:52;;;;;;;11.23;9.15;;;;;;;33.66;52.55;100746.56;5123590;27;69601;-33
2022/04/11 05:46:27;;;;;;;11.60;8.48;;;;;;;33.70;52.61;100746.91;5103200;27;65248;-32
2022/04/11 05:49:09;;;;;;;10.18;8.50;;;;;;;33.55;52.62;100721.06;5111366;27;70418;-34
2022/04/11 05:51:40;;;;;;;9.77;8.48;;;;;;;33.71;52.43;100732.22;5130989;27;65352;-34
2022/04/11 05:54:11;;;;;;;9.10;8.27;;;;;;;33.68;52.51;100711.78;5108911;27;70039;-33
2022/04/11 05:56:42;;;;;;;10.73;9.60;;;;;;;33.63;52.48;100695.38;5113267;27;66398;-31
2022/04/11 05:59:15;;;;;;;9.70;8.80;;;;;;;33.76;52.57;100708.66;5115683;27;70317;-33
2022/04/11 06:01:46;;;;;;;9.03;8.27;;;;;;;33.76;52.47;100711.38;5115081;27;65891;-34
2022/04/11 06:04:17;;;;;;;9.70;8.77;;;;;;;33.70;52.48;100693.31;5112356;27;70993;-34
2022/04/11 06:06:49;;;;;;;9.77;8.85;;;;;;;33.79;52.13;100685.59;5092780;27;65185;-35
2022/04/11 06:09:20;;;;;;;9.18;8.40;;;;;;;33.57;52.38;100644.66;5113006;27;69936;-33
2022/04/11 06:11:51;;;;;;;9.20;8.48;;;;;;;33.81;52.29;100667.13;5131171;27;66448;-34
2022/04/11 06:14:22;;;;;;;10.10;9.10;;;;;;;33.90;52.03;100672.97;5114103;27;68838;-34
2022/04/11 06:16:54;;;;;;;12.87;9.00;;;;;;;33.92;51.94;100665.41;5107049;27;66404;-33
2022/04/11 06:19:25;;;;;;;9.05;8.32;;;;;;;33.95;51.71;100663.00;5105967;27;70393;-34
2022/04/11 06:21:56;;;;;;;9.70;8.80;;;;;;;33.95;51.93;100649.41;5109292;27;65523;-33
2022/04/11 06:24:27;;;;;;;10.47;9.37;;;;;;;33.99;51.85;100645.13;5088774;27;70489;-35
2022/04/11 06:27:01;;;;;;;8.90;8.40;;;;;;;34.05;51.72;100640.63;5091035;27;66115;-34
2022/04/11 06:29:32;;;;;;;9.50;8.50;;;;;;;34.08;51.80;100634.69;5102563;27;69255;-34
2022/04/11 06:32:04;;;;;;;10.00;8.97;;;;;;;34.10;51.93;100637.16;5097296;27;66145;-33
2022/04/11 06:34:39;;;;;;;10.35;9.45;;;;;;;34.16;51.57;100631.53;5082867;27;70145;-33
2022/04/11 06:37:09;;;;;;;9.48;8.60;;;;;;;34.14;51.83;100622.81;5114813;27;65317;-34
2022/04/11 06:39:40;;;;;;;12.15;8.90;;;;;;;34.20;51.52;100604.66;5107452;27;69124;-34
2022/04/11 06:42:11;;;;;;;9.73;8.80;;;;;;;34.20;51.08;100591.84;5121059;27;66108;-34
2022/04/11 06:44:44;;;;;;;10.70;8.68;;;;;;;34.23;51.22;100599.50;5124735;27;69513;-32
2022/04/11 06:47:18;;;;;;;14.63;9.38;;;;;;;34.32;51.34;100596.38;5099928;27;66307;-32
2022/04/11 06:49:50;;;;;;;9.75;8.95;;;;;;;34.34;51.14;100584.16;5115852;27;70023;-33
2022/04/11 06:52:21;;;;;;;11.25;10.18;;;;;;;34.34;51.05;100577.88;5108093;27;66198;-33
2022/04/11 06:54:52;;;;;;;11.38;8.98;;;;;;;34.39;51.12;100577.97;5119106;27;69758;-33
2022/04/11 06:57:24;;;;;;;15.18;9.48;;;;;;;33.91;51.92;100568.53;5122769;27;66381;-32
2022/04/11 06:59:55;;;;;;;10.80;9.65;;;;;;;33.51;51.33;100574.91;5105832;27;70556;-32
2022/04/11 07:02:25;;;;;;;11.60;10.10;;;;;;;33.21;50.40;100561.59;5104200;27;65651;-33
2022/04/11 07:04:57;;;;;;;;;;;;;;;32.72;50.34;100573.69;5090865;27;70398;-34
2022/04/11 07:07:27;;;;;;;15.25;9.18;;;;;;;32.82;49.35;100562.22;5108556;27;65318;-32
2022/04/11 07:10:00;;;;;;;10.37;9.23;;;;;;;32.67;48.58;100567.31;5102576;27;70084;-32
2022/04/11 07:12:30;;;;;;;;;;;;;;;32.25;48.28;100562.03;5108368;27;66653;-33
2022/04/11 07:15:02;;;;;;;12.35;8.55;;;;;;;32.42;47.31;100551.28;5112001;27;69347;-33
2022/04/11 07:17:33;;;;;;;11.07;8.23;;;;;;;32.34;46.54;100543.50;5108448;27;66053;-33
2022/04/11 07:20:04;;;;;;;10.00;8.57;;;;;;;32.26;46.04;100542.81;5096975;27;69648;-32
2022/04/11 07:22:35;;;;;;;10.43;8.30;;;;;;;32.18;45.81;100554.03;5125691;27;66325;-33
2022/04/11 07:25:06;;;;;;;11.55;8.75;;;;;;;32.12;45.18;100535.16;5127981;27;70060;-33
2022/04/11 07:27:37;;;;;;;9.98;8.15;;;;;;;32.12;44.89;100537.84;5100872;27;66348;-32
2022/04/11 07:30:08;;;;;;;8.52;8.02;;;;;;;32.03;44.71;100538.22;5114785;27;71767;-32
2022/04/11 07:32:39;;;;;;;13.60;7.70;;;;;;;31.97;44.95;100536.44;5105533;27;66178;-33
2022/04/11 07:35:10;;;;;;;8.77;7.43;;;;;;;32.02;44.40;100539.28;5107143;27;70180;-32
2022/04/11 07:37:41;;;;;;;7.75;7.15;;;;;;;32.02;44.31;100541.19;5105071;27;66264;-32
2022/04/11 07:40:12;;;;;;;8.32;7.72;;;;;;;31.98;43.77;100534.56;5109949;27;70089;-34
2022/04/11 07:42:43;;;;;;;8.45;7.65;;;;;;;31.99;44.06;100537.06;5113038;27;66404;-33
2022/04/11 07:45:14;;;;;;;8.15;7.50;;;;;;;31.91;43.24;100525.69;5123043;27;70079;-32
2022/04/11 07:47:45;;;;;;;17.60;7.55;;;;;;;31.97;43.12;100544.59;5111517;27;66325;-31
2022/04/11 07:50:16;;;;;;;8.00;7.40;;;;;;;31.95;43.00;100544.00;5105178;27;70261;-33
2022/04/11 07:52:47;;;;;;;8.07;7.32;;;;;;;31.95;42.59;100540.47;5108526;27;66395;-33
2022/04/11 07:55:24;;;;;;;7.75;7.03;;;;;;;31.95;42.49;100535.84;5093178;27;69044;-33
2022/04/11 07:57:55;;;;;;;7.53;6.88;;;;;;;31.94;42.31;100539.63;5103958;27;65745;-32
2022/04/11 08:00:26;;;;;;;8.38;7.65;;;;;;;31.91;42.11;100533.84;5108912;27;69200;-32
2022/04/11 08:02:57;;;;;;;7.75;6.75;;;;;;;31.81;41.76;100518.13;5097663;27;65418;-32
2022/04/11 08:05:28;;;;;;;7.28;6.85;;;;;;;31.91;42.21;100537.41;5116575;27;69747;-32
2022/04/11 08:07:59;;;;;;;7.43;6.93;;;;;;;31.94;41.66;100539.63;5105134;27;66169;-33
2022/04/11 08:10:32;;;;;;;11.68;7.00;;;;;;;31.90;42.10;100526.75;5107556;27;68928;-33
2022/04/11 08:13:03;;;;;;;7.47;6.80;;;;;;;31.81;41.67;100523.56;5100753;27;65720;-32
2022/04/11 08:15:34;;;;;;;7.60;7.03;;;;;;;31.83;42.06;100527.69;5111331;27;70016;-32
2022/04/11 08:18:04;;;;;;;7.68;7.18;;;;;;;31.83;41.77;100533.13;5105255;27;65420;-32
2022/04/11 08:20:35;;;;;;;6.88;6.45;;;;;;;31.79;41.44;100528.41;5104911;27;70630;-33
2022/04/11 08:23:06;;;;;;;8.45;7.28;;;;;;;31.80;41.31;100527.34;5109460;27;65697;-40
2022/04/11 08:25:37;;;;;;;7.68;7.15;;;;;;;31.74;41.21;100512.03;5103486;27;70435;-33
2022/04/11 08:28:07;;;;;;;7.53;6.93;;;;;;;31.74;41.35;100518.25;5113293;27;66012;-36
2022/04/11 08:30:39;;;;;;;10.77;7.03;;;;;;;31.76;41.47;100524.28;5112373;27;70137;-39
2022/04/11 08:33:11;;;;;;;7.20;6.70;;;;;;;31.66;40.79;100509.66;5104079;27;66117;-32
2022/04/11 08:35:43;;;;;;;7.82;6.22;;;;;;;31.71;41.06;100513.31;5110241;27;69751;-33
2022/04/11 08:38:13;;;;;;;7.20;6.53;;;;;;;31.37;41.37;100475.09;5090336;27;65747;-33
2022/04/11 08:40:45;;;;;;;6.63;6.10;;;;;;;31.59;40.95;100513.31;5103888;27;70220;-33
2022/04/11 08:43:21;;;;;;;7.65;6.95;;;;;;;31.54;40.60;100518.59;5075949;27;64873;-35
2022/04/11 08:45:53;;;;;;;6.57;6.10;;;;;;;31.53;40.59;100519.63;5108974;27;69457;-32
2022/04/11 08:48:26;;;;;;;6.13;5.70;;;;;;;31.45;40.61;100503.72;5101181;27;66117;-33
2022/04/11 08:51:00;;;;;;;6.75;6.35;;;;;;;31.44;41.31;100501.25;5106404;27;43412;-32
2022/04/11 08:53:32;;;;;;;7.70;6.97;;;;;;;31.51;41.40;100502.81;5092913;27;65020;-33
2022/04/11 08:56:03;;;;;;;10.27;6.65;;;;;;;31.49;40.99;100496.78;5105576;27;69453;-32
2022/04/11 08:58:34;;;;;;;8.18;7.38;;;;;;;31.67;42.76;100512.09;5105054;27;66602;-33
2022/04/11 09:01:05;;;;;;;8.52;7.72;;;;;;;31.59;42.23;100494.31;5101450;27;69957;-33
2022/04/11 09:03:36;;;;;;;16.92;7.70;;;;;;;31.78;42.73;100510.47;5104873;27;65732;-34
2022/04/11 09:06:09;;;;;;;9.32;7.78;;;;;;;31.71;41.94;100493.50;5105569;27;70258;-34
2022/04/11 09:08:55;;;;;;;8.60;7.82;;;;;;;31.46;41.51;100451.16;5105375;27;66221;-38
2022/04/11 09:11:33;;;;;;;12.73;7.10;;;;;;;31.90;41.39;100494.19;5104348;27;71164;-36
2022/04/11 09:14:07;;;;;;;8.73;7.60;;;;;;;31.95;41.09;100486.19;5103703;27;66476;-36
2022/04/11 09:16:52;;;;;;;10.93;7.80;;;;;;;31.95;42.44;100503.31;5106781;27;69059;-34
2022/04/11 09:19:24;;;;;;;17.17;9.50;;;;;;;32.20;47.64;100494.91;5088759;27;64984;-34
2022/04/11 09:22:32;;;;;;;17.52;10.90;;;;;;;32.38;50.93;100507.50;5117719;27;69509;-34
2022/04/11 09:25:14;;;;;;;22.33;10.70;;;;;;;32.58;52.15;100506.31;5101901;27;66309;-35
2022/04/11 09:27:47;;;;;;;29.48;11.25;;;;;;;32.70;52.93;100498.94;5117313;27;70009;-35
2022/04/11 09:30:28;;;;;;;19.85;13.43;;;;;;;32.83;54.73;100512.22;5105147;27;66399;-34
2022/04/11 09:33:03;;;;;;;25.05;14.13;;;;;;;32.91;54.45;100517.28;5103737;27;69686;-33
2022/04/11 09:35:36;;;;;;;17.33;13.25;;;;;;;32.99;54.70;100526.94;5111898;27;65535;-33
2022/04/11 09:38:15;;;;;;;20.45;12.48;;;;;;;33.01;54.85;100513.94;5103856;27;69488;-34
2022/04/11 09:40:51;;;;;;;19.25;14.15;;;;;;;33.06;55.14;100521.38;5102989;27;66531;-34
2022/04/11 09:43:28;;;;;;;29.15;14.18;;;;;;;33.12;55.32;100520.41;5106170;27;69780;-38
2022/04/11 09:46:02;;;;;;;21.08;14.52;;;;;;;33.17;55.32;100520.50;5105356;27;66246;-34
2022/04/11 09:48:37;;;;;;;24.15;14.00;;;;;;;33.22;55.20;100512.44;5106788;27;69556;-34
2022/04/11 09:51:13;;;;;;;22.38;14.45;;;;;;;33.27;55.27;100525.28;5110956;27;66617;-34
2022/04/11 09:53:45;;;;;;;20.95;14.70;;;;;;;33.29;55.76;100523.13;5097725;27;69970;-36
2022/04/11 09:56:22;;;;;;;21.77;15.82;;;;;;;33.28;55.66;100518.78;5103428;27;65697;-33
2022/04/11 09:58:55;;;;;;;23.45;14.60;;;;;;;33.29;55.75;100529.41;5122914;27;70355;-32
2022/04/11 10:01:26;;;;;;;22.15;16.20;;;;;;;33.22;55.38;100517.88;5125383;27;66424;-34
2022/04/11 10:03:58;;;;;;;17.92;13.75;;;;;;;33.28;54.91;100535.91;5113518;27;70402;-34
2022/04/11 10:06:28;;;;;;;;;;;;;;;33.01;55.81;100532.16;5126273;27;65993;-33
2022/04/11 10:09:03;;;;;;;29.55;17.27;;;;;;;33.18;55.11;100521.31;5105833;27;69870;-34
2022/04/11 10:11:35;;;;;;;27.60;16.08;;;;;;;33.26;55.29;100535.31;5111706;27;66115;-33
2022/04/11 10:14:11;;;;;;;28.63;16.52;;;;;;;33.03;55.14;100511.00;5083068;27;69742;-33
2022/04/11 10:16:44;;;;;;;21.00;15.75;;;;;;;33.26;55.10;100556.25;5103887;27;67598;-33
2022/04/11 10:19:21;;;;;;;22.25;15.07;;;;;;;33.22;54.89;100555.09;5075311;27;70130;-33
2022/04/11 10:22:01;;;;;;;30.23;17.35;;;;;;;33.21;54.91;100562.44;5099828;27;66638;-34
2022/04/11 10:24:41;;;;;;;25.90;16.90;;;;;;;33.16;55.17;100567.78;5097192;27;69898;-33
2022/04/11 10:27:20;;;;;;;29.05;15.48;;;;;;;32.91;55.40;100525.44;5099332;27;66078;-32
2022/04/11 10:29:52;;;;;;;28.27;16.42;;;;;;;33.10;55.45;100563.31;5106557;27;70155;-32
2022/04/11 10:32:29;;;;;;;;;;;;;;;32.83;57.38;100560.31;5110292;27;65855;-33
2022/04/11 10:35:10;;;;;;;22.98;16.20;;;;;;;33.09;57.42;100561.66;5111088;27;69873;-33
2022/04/11 10:37:40;;;;;;;32.40;18.05;;;;;;;33.13;57.71;100562.81;5122434;27;65950;-34
2022/04/11 10:40:17;;;;;;;28.25;17.90;;;;;;;33.10;57.22;100568.75;5104233;27;70149;-34
2022/04/11 10:43:08;;;;;;;29.15;16.17;;;;;;;33.06;57.64;100573.00;5105849;27;66691;-34
2022/04/11 10:45:41;;;;;;;28.75;15.68;;;;;;;33.06;56.79;100564.84;5105051;27;70406;-35
2022/04/11 10:48:15;;;;;;;24.42;15.13;;;;;;;33.08;56.52;100570.88;5105780;27;65264;-33
2022/04/11 10:50:46;;;;;;;23.75;14.30;;;;;;;33.00;56.89;100573.97;5103417;27;70075;-33
2022/04/11 10:53:24;;;;;;;21.90;14.27;;;;;;;32.98;57.27;100582.34;5104520;27;65042;-33
2022/04/11 10:55:56;;;;;;;25.65;14.23;;;;;;;32.96;57.34;100589.06;5085395;27;70465;-33
2022/04/11 10:58:48;;;;;;;26.23;14.55;;;;;;;32.88;58.07;100582.16;5088479;27;67123;-33
2022/04/11 11:01:45;;;;;;;22.60;15.25;;;;;;;32.90;58.73;100591.72;5104297;27;69087;-34
2022/04/11 11:04:23;;;;;;;24.53;15.10;;;;;;;32.99;58.76;100599.44;5102181;27;66199;-35
2022/04/11 11:07:30;;;;;;;32.95;15.32;;;;;;;32.91;58.70;100609.66;5106032;27;70000;-34
2022/04/11 11:10:01;;;;;;;29.02;14.57;;;;;;;33.03;58.52;100600.66;5108138;27;66075;-34
2022/04/11 11:12:32;;;;;;;28.70;14.73;;;;;;;32.78;58.83;100582.75;5103827;27;68654;-35
2022/04/11 11:15:25;;;;;;;28.95;15.38;;;;;;;32.75;59.49;100609.56;5126846;27;66088;-33
2022/04/11 11:17:58;;;;;;;31.20;16.90;;;;;;;32.85;59.70;100609.81;5119417;27;68888;-35
2022/04/11 11:20:33;;;;;;;31.20;16.27;;;;;;;32.81;60.02;100614.03;5108656;27;65310;-37
2022/04/11 11:23:20;;;;;;;26.50;16.23;;;;;;;32.74;60.42;100616.91;5123430;27;68941;-31
2022/04/11 11:25:53;;;;;;;25.20;15.43;;;;;;;32.69;60.25;100612.19;5111374;27;65397;-34
2022/04/11 11:28:28;;;;;;;27.92;16.48;;;;;;;32.62;60.57;100611.47;5099136;27;70304;-34
2022/04/11 11:30:59;;;;;;;19.52;15.15;;;;;;;32.67;60.72;100619.72;5104348;27;66194;-34
2022/04/11 11:33:31;;;;;;;34.05;16.13;;;;;;;32.57;60.96;100619.53;5104816;27;69866;-35
2022/04/11 11:36:04;;;;;;;29.52;16.05;;;;;;;32.59;61.06;100638.28;5106635;27;65577;-35
2022/04/11 11:38:35;;;;;;;30.00;17.35;;;;;;;32.61;61.02;100636.16;5111887;27;70117;-34
2022/04/11 11:41:06;;;;;;;31.27;16.52;;;;;;;32.56;61.16;100638.75;5115216;27;66481;-36
2022/04/11 11:43:37;;;;;;;27.42;15.40;;;;;;;32.60;61.38;100645.41;5109409;27;69813;-34
2022/04/11 11:46:08;;;;;;;30.67;16.05;;;;;;;32.58;61.52;100639.38;5101401;27;65267;-33
2022/04/11 11:48:41;;;;;;;32.13;16.58;;;;;;;32.56;61.47;100642.31;5118757;27;71300;-34